createdAt,value
2023-03-22T00:00:20.548Z,389.00
2023-03-22T00:04:20.490Z,397.00
2023-03-22T00:08:20.475Z,397.00
2023-03-22T00:12:20.410Z,398.00
2023-03-22T00:16:20.459Z,400.00
2023-03-22T00:20:20.977Z,398.00
2023-03-22T00:24:20.347Z,398.00
2023-03-22T00:28:20.271Z,395.00
2023-03-22T00:32:20.235Z,394.00
2023-03-22T00:36:20.275Z,395.00
2023-03-22T00:40:20.182Z,392.00
2023-03-22T00:44:20.153Z,388.00
2023-03-22T00:48:20.239Z,389.00
2023-03-22T00:52:20.074Z,388.00
2023-03-22T00:56:20.087Z,389.00
2023-03-22T01:00:20.129Z,386.00
2023-03-22T01:04:20.076Z,388.00
2023-03-22T01:08:20.000Z,397.00
2023-03-22T01:12:19.992Z,394.00
2023-03-22T01:16:20.005Z,394.00
2023-03-22T01:20:19.966Z,391.00
2023-03-22T01:24:19.860Z,389.00
2023-03-22T01:28:19.830Z,388.00
2023-03-22T01:32:19.827Z,386.00
2023-03-22T01:36:19.787Z,393.00
2023-03-22T01:40:19.727Z,392.00
2023-03-22T01:44:19.702Z,387.00
2023-03-22T01:48:19.744Z,390.00
2023-03-22T01:52:19.860Z,389.00
2023-03-22T01:56:19.594Z,388.00
2023-03-22T02:00:19.523Z,387.00
2023-03-22T02:04:19.555Z,390.00
2023-03-22T02:08:19.874Z,378.00
2023-03-22T02:12:19.585Z,379.00
2023-03-22T02:16:19.461Z,383.00
2023-03-22T02:20:19.430Z,385.00
2023-03-22T02:24:19.395Z,388.00
2023-03-22T02:28:19.818Z,387.00
2023-03-22T02:32:19.320Z,389.00
2023-03-22T02:36:21.826Z,389.00
2023-03-22T02:40:19.565Z,388.00
2023-03-22T02:44:19.523Z,388.00
2023-03-22T02:48:19.630Z,386.00
2023-03-22T02:52:19.670Z,387.00
2023-03-22T02:56:19.867Z,390.00
2023-03-22T03:00:19.827Z,388.00
2023-03-22T03:04:19.921Z,391.00
2023-03-22T03:08:20.006Z,394.00
2023-03-22T03:12:20.083Z,390.00
2023-03-22T03:16:20.182Z,391.00
2023-03-22T03:20:20.390Z,387.00
2023-03-22T03:24:20.359Z,385.00
2023-03-22T03:28:20.856Z,386.00
2023-03-22T03:32:20.519Z,384.00
2023-03-22T03:36:20.559Z,387.00
2023-03-22T03:40:20.795Z,382.00
2023-03-22T03:44:20.856Z,388.00
2023-03-22T03:48:20.941Z,382.00
2023-03-22T03:52:20.973Z,383.00
2023-03-22T03:56:21.131Z,384.00
2023-03-22T04:00:21.301Z,384.00
2023-03-22T04:04:21.371Z,380.00
2023-03-22T04:08:21.484Z,385.00
2023-03-22T04:12:21.551Z,385.00
2023-03-22T04:16:21.724Z,382.00
2023-03-22T04:20:21.908Z,385.00
2023-03-22T04:24:22.007Z,384.00
2023-03-22T04:28:22.077Z,385.00
2023-03-22T04:32:22.231Z,382.00
2023-03-22T04:36:22.364Z,383.00
2023-03-22T04:40:22.520Z,380.00
2023-03-22T04:44:22.645Z,382.00
2023-03-22T04:48:22.823Z,379.00
2023-03-22T04:52:22.911Z,377.00
2023-03-22T04:56:23.034Z,381.00
2023-03-22T05:00:23.268Z,383.00
2023-03-22T05:04:23.398Z,385.00
2023-03-22T05:08:23.580Z,386.00
2023-03-22T05:12:23.905Z,386.00
2023-03-22T05:16:24.046Z,386.00
2023-03-22T05:20:23.966Z,387.00
2023-03-22T05:24:23.940Z,390.00
2023-03-22T05:28:23.916Z,390.00
2023-03-22T05:32:23.890Z,397.00
2023-03-22T05:36:23.897Z,396.00
2023-03-22T05:40:23.830Z,394.00
2023-03-22T05:44:23.782Z,397.00
2023-03-22T05:48:23.739Z,395.00
2023-03-22T05:52:23.729Z,390.00
2023-03-22T05:56:24.736Z,391.00
2023-03-22T06:00:23.684Z,394.00
2023-03-22T06:04:23.798Z,395.00
2023-03-22T06:08:26.442Z,395.00
2023-03-22T06:15:42.868Z,397.00
2023-03-22T06:19:42.714Z,395.00
2023-03-22T06:23:42.726Z,394.00
2023-03-22T06:27:42.683Z,393.00
2023-03-22T06:31:42.972Z,391.00
2023-03-22T06:35:42.591Z,390.00
2023-03-22T06:39:42.570Z,390.00
2023-03-22T06:43:42.540Z,388.00
2023-03-22T06:47:42.519Z,395.00
2023-03-22T06:51:42.567Z,394.00
2023-03-22T06:55:42.453Z,392.00
2023-03-22T06:59:42.476Z,391.00
2023-03-22T07:03:42.675Z,397.00
2023-03-22T07:07:42.906Z,398.00
2023-03-22T07:11:43.100Z,401.00
2023-03-22T07:15:43.334Z,396.00
2023-03-22T07:19:43.494Z,400.00
2023-03-22T07:23:44.578Z,412.00
2023-03-22T07:27:43.996Z,431.00
2023-03-22T07:31:43.914Z,440.00
2023-03-22T07:35:44.538Z,455.00
2023-03-22T07:39:44.086Z,473.00
2023-03-22T07:43:54.271Z,487.00
2023-03-22T07:47:45.280Z,492.00
2023-03-22T07:51:44.168Z,504.00
2023-03-22T07:55:44.325Z,507.00
2023-03-22T07:59:44.459Z,507.00
2023-03-22T08:03:44.388Z,516.00
2023-03-22T08:07:44.386Z,515.00
2023-03-22T08:11:44.512Z,514.00
2023-03-22T08:15:44.585Z,514.00
2023-03-22T08:19:44.286Z,509.00
2023-03-22T08:23:44.235Z,502.00
2023-03-22T08:27:44.546Z,504.00
2023-03-22T08:31:45.159Z,502.00
2023-03-22T08:35:44.547Z,501.00
2023-03-22T08:39:44.124Z,509.00
2023-03-22T08:43:44.043Z,525.00
2023-03-22T08:47:44.085Z,537.00
2023-03-22T08:51:44.004Z,540.00
2023-03-22T08:55:43.999Z,541.00
2023-03-22T08:59:44.121Z,535.00
2023-03-22T09:03:44.200Z,534.00
2023-03-22T09:07:44.273Z,532.00
2023-03-22T09:11:44.335Z,527.00
2023-03-22T09:15:44.406Z,527.00
2023-03-22T09:19:44.599Z,523.00
2023-03-22T09:23:44.397Z,516.00
2023-03-22T09:27:44.369Z,517.00
2023-03-22T09:31:44.430Z,513.00
2023-03-22T09:35:45.178Z,520.00
2023-03-22T09:39:44.658Z,528.00
2023-03-22T09:43:44.684Z,520.00
2023-03-22T09:47:45.582Z,511.00
2023-03-22T09:51:44.453Z,504.00
2023-03-22T09:55:44.471Z,519.00
2023-03-22T09:59:44.464Z,509.00
2023-03-22T10:03:44.355Z,463.00
2023-03-22T10:07:44.334Z,443.00
2023-03-22T10:11:45.969Z,441.00
2023-03-22T10:15:44.330Z,449.00
2023-03-22T10:19:44.401Z,448.00
2023-03-22T10:23:44.487Z,448.00
2023-03-22T10:27:44.421Z,527.00
2023-03-22T10:31:44.434Z,505.00
2023-03-22T10:35:44.459Z,487.00
2023-03-22T10:39:44.331Z,483.00
2023-03-22T10:43:44.819Z,527.00
2023-03-22T10:47:44.315Z,586.00
2023-03-22T10:51:44.195Z,644.00
2023-03-22T10:55:44.194Z,660.00
2023-03-22T10:59:44.226Z,665.00
2023-03-22T11:07:25.519Z,603.00
2023-03-22T11:11:25.464Z,572.00
2023-03-22T11:15:26.241Z,543.00
2023-03-22T11:19:25.769Z,514.00
2023-03-22T11:23:25.368Z,488.00
2023-03-22T11:27:25.349Z,476.00
2023-03-22T11:31:25.355Z,471.00
2023-03-22T11:35:25.448Z,461.00
2023-03-22T11:39:25.588Z,456.00
2023-03-22T11:43:25.612Z,454.00
2023-03-22T11:47:25.724Z,451.00
2023-03-22T11:51:25.745Z,448.00
2023-03-22T11:55:25.763Z,437.00
2023-03-22T11:59:25.827Z,432.00
2023-03-22T12:03:25.887Z,431.00
2023-03-22T12:07:25.843Z,435.00
2023-03-22T12:11:25.794Z,447.00
2023-03-22T12:15:25.861Z,461.00
2023-03-22T12:19:25.776Z,464.00
2023-03-22T12:23:26.249Z,464.00
2023-03-22T12:27:25.798Z,466.00
2023-03-22T12:31:25.963Z,466.00
2023-03-22T12:35:26.063Z,454.00
2023-03-22T12:39:26.218Z,444.00
2023-03-22T12:43:26.204Z,451.00
2023-03-22T12:47:26.426Z,452.00
2023-03-22T12:51:26.071Z,452.00
2023-03-22T12:55:26.103Z,454.00
2023-03-22T12:59:26.037Z,454.00
2023-03-22T13:03:26.206Z,460.00
2023-03-22T13:07:25.988Z,697.00
2023-03-22T13:11:25.955Z,577.00
2023-03-22T13:15:31.560Z,603.00
2023-03-22T13:19:26.880Z,620.00
2023-03-22T13:23:25.844Z,599.00
2023-03-22T13:27:25.798Z,608.00
2023-03-22T13:31:25.806Z,609.00
2023-03-22T13:35:25.824Z,627.00
2023-03-22T13:39:25.706Z,617.00
2023-03-22T13:43:25.667Z,602.00
2023-03-22T13:47:25.689Z,628.00
2023-03-22T13:51:25.736Z,610.00
2023-03-22T13:55:25.559Z,560.00
2023-03-22T13:59:25.645Z,555.00
2023-03-22T14:03:25.661Z,543.00
2023-03-22T14:07:26.298Z,519.00
2023-03-22T14:11:25.391Z,518.00
2023-03-22T14:15:25.788Z,535.00
2023-03-22T14:19:25.341Z,519.00
2023-03-22T14:48:25.585Z,558.00
2023-03-22T14:52:25.500Z,498.00
2023-03-22T14:56:25.504Z,458.00
2023-03-22T15:00:25.487Z,437.00
2023-03-22T15:04:25.419Z,418.00
2023-03-22T15:08:25.376Z,405.00
2023-03-22T15:12:25.352Z,396.00
2023-03-22T15:16:25.371Z,389.00
2023-03-22T15:20:25.302Z,384.00
2023-03-22T15:24:25.227Z,382.00
2023-03-22T15:28:25.206Z,380.00
2023-03-22T15:32:25.383Z,381.00
2023-03-22T15:36:25.358Z,384.00
2023-03-22T15:40:25.293Z,385.00
2023-03-22T15:44:25.239Z,385.00
2023-03-22T15:48:25.267Z,388.00
2023-03-22T15:52:25.214Z,385.00
2023-03-22T15:56:29.065Z,384.00
2023-03-22T16:00:26.148Z,384.00
2023-03-22T16:04:25.111Z,390.00
2023-03-22T16:08:25.316Z,388.00
2023-03-22T16:12:25.433Z,386.00
2023-03-22T16:16:25.655Z,388.00
2023-03-22T16:20:25.916Z,382.00
2023-03-22T16:24:26.376Z,385.00
2023-03-22T16:28:26.064Z,384.00
2023-03-22T16:32:26.170Z,382.00
2023-03-22T16:36:26.368Z,383.00
2023-03-22T16:40:26.505Z,386.00
2023-03-22T16:44:26.575Z,389.00
2023-03-22T16:48:26.824Z,385.00
2023-03-22T16:52:26.933Z,382.00
2023-03-22T16:56:26.981Z,377.00
2023-03-22T17:00:27.369Z,380.00
2023-03-22T17:04:27.358Z,377.00
2023-03-22T17:08:27.553Z,374.00
2023-03-22T17:12:27.799Z,377.00
2023-03-22T17:16:28.466Z,372.00
2023-03-22T17:20:27.853Z,378.00
2023-03-22T17:24:27.942Z,382.00
2023-03-22T17:28:28.191Z,381.00
2023-03-22T17:32:49.736Z,379.00
2023-03-22T17:36:29.151Z,374.00
2023-03-22T17:40:35.757Z,382.00
2023-03-22T17:44:29.045Z,382.00
2023-03-22T17:48:28.063Z,392.00
2023-03-22T17:52:28.310Z,391.00
2023-03-22T17:57:03.480Z,392.00
2023-03-22T18:00:28.922Z,391.00
2023-03-22T18:04:27.837Z,389.00
2023-03-22T18:08:28.645Z,386.00
2023-03-22T18:12:28.061Z,386.00
2023-03-22T18:16:53.264Z,389.00
2023-03-22T18:20:54.776Z,390.00
2023-03-22T18:24:29.032Z,392.00
2023-03-22T18:28:28.028Z,391.00
2023-03-22T18:32:42.978Z,388.00
2023-03-22T18:36:28.989Z,390.00
2023-03-22T18:41:03.792Z,391.00
2023-03-22T18:44:28.826Z,403.00
2023-03-22T18:48:27.820Z,400.00
2023-03-22T18:52:44.261Z,404.00
2023-03-22T18:56:32.227Z,404.00
2023-03-22T19:00:27.709Z,401.00
2023-03-22T19:04:27.733Z,401.00
2023-03-22T19:08:29.110Z,402.00
2023-03-22T19:12:27.694Z,400.00
2023-03-22T19:16:27.591Z,395.00
2023-03-22T19:20:38.314Z,397.00
2023-03-22T19:24:28.575Z,397.00
2023-03-22T19:28:27.462Z,393.00
2023-03-22T19:32:27.517Z,394.00
2023-03-22T19:36:27.488Z,397.00
2023-03-22T19:44:27.384Z,393.00
2023-03-22T19:48:27.304Z,399.00
2023-03-22T19:52:27.268Z,395.00
2023-03-22T19:56:27.284Z,395.00
2023-03-22T20:00:45.049Z,398.00
2023-03-22T20:04:28.167Z,398.00
2023-03-22T20:08:27.198Z,400.00
2023-03-22T20:12:27.106Z,396.00
2023-03-22T20:16:27.131Z,393.00
2023-03-22T20:20:27.058Z,392.00
2023-03-22T20:24:26.969Z,397.00
2023-03-22T20:28:27.068Z,390.00
2023-03-22T20:32:26.928Z,390.00
2023-03-22T20:36:26.919Z,391.00
2023-03-22T20:40:26.929Z,389.00
2023-03-22T20:44:26.968Z,384.00
2023-03-22T20:48:26.990Z,384.00
2023-03-22T20:52:26.917Z,385.00
2023-03-22T20:56:26.893Z,388.00
2023-03-22T21:00:26.870Z,390.00
2023-03-22T21:04:26.966Z,395.00
2023-03-22T21:08:26.860Z,393.00
2023-03-22T21:12:26.837Z,391.00
2023-03-22T21:16:26.865Z,390.00
2023-03-22T21:20:32.384Z,390.00
2023-03-22T21:24:27.810Z,392.00
2023-03-22T21:28:26.745Z,392.00
2023-03-22T21:32:26.726Z,384.00
2023-03-22T21:36:26.730Z,387.00
2023-03-22T21:40:26.643Z,385.00
2023-03-22T21:44:26.769Z,385.00
2023-03-22T21:48:26.636Z,385.00
2023-03-22T21:52:41.452Z,389.00
2023-03-22T21:56:26.634Z,386.00
2023-03-22T22:00:26.557Z,386.00
2023-03-22T22:04:26.545Z,388.00
2023-03-22T22:08:26.509Z,384.00
2023-03-22T22:12:26.483Z,384.00
2023-03-22T22:16:26.461Z,385.00
2023-03-22T22:20:26.375Z,386.00
2023-03-22T22:24:26.417Z,386.00
2023-03-22T22:28:26.343Z,383.00
2023-03-22T22:32:26.299Z,386.00
2023-03-22T22:36:26.293Z,391.00
2023-03-22T22:40:26.263Z,392.00
2023-03-22T22:44:26.182Z,391.00
2023-03-22T22:48:26.165Z,391.00
2023-03-22T22:52:26.146Z,387.00
2023-03-22T22:56:26.057Z,389.00
2023-03-22T23:00:26.001Z,382.00
2023-03-22T23:04:26.009Z,382.00
2023-03-22T23:08:25.995Z,382.00
2023-03-22T23:12:25.996Z,377.00
2023-03-22T23:16:25.873Z,375.00
2023-03-22T23:20:25.898Z,375.00
2023-03-22T23:24:25.833Z,378.00
2023-03-22T23:28:25.958Z,377.00
2023-03-22T23:32:26.058Z,378.00
2023-03-22T23:36:26.179Z,375.00
2023-03-22T23:40:26.314Z,372.00
2023-03-22T23:44:26.376Z,372.00
2023-03-22T23:48:26.491Z,373.00
2023-03-22T23:52:26.626Z,370.00
2023-03-22T23:56:26.758Z,372.00
